sensor_id;sensor_type;location;lat;lon;timestamp;P1;durP1;ratioP1;P2;durP2;ratioP2
28455;SDS011;15682;56.742;38.866;2022-12-18T00:01:13;11.5;;;6.9;;
28455;SDS011;15682;56.742;38.866;2022-12-18T00:03:08;12.3;;;6.7;;
28455;SDS011;15682;56.742;38.866;2022-12-18T00:05:07;13.3;;;7.2;;
28455;SDS011;15682;56.742;38.866;2022-12-18T00:07:07;12.7;;;7.1;;
28455;SDS011;15682;56.742;38.866;2022-12-18T00:09:08;12.4;;;7.2;;
28455;SDS011;15682;56.742;38.866;2022-12-18T00:11:07;11.2;;;6.4;;
28455;SDS011;15682;56.742;38.866;2022-12-18T00:13:06;12.2;;;7.4;;
28455;SDS011;15682;56.742;38.866;2022-12-18T00:15:07;12.1;;;7.0;;
28455;SDS011;15682;56.742;38.866;2022-12-18T00:17:06;11.2;;;7.1;;
28455;SDS011;15682;56.742;38.866;2022-12-18T00:19:06;13.7;;;7.3;;
28455;SDS011;15682;56.742;38.866;2022-12-18T00:21:06;10.8;;;6.9;;
28455;SDS011;15682;56.742;38.866;2022-12-18T00:23:06;11.9;;;7.2;;
28455;SDS011;15682;56.742;38.866;2022-12-18T00:25:05;11.0;;;6.8;;
28455;SDS011;15682;56.742;38.866;2022-12-18T00:27:05;11.2;;;6.7;;
28455;SDS011;15682;56.742;38.866;2022-12-18T00:29:07;11.3;;;6.6;;
28455;SDS011;15682;56.742;38.866;2022-12-18T00:31:06;11.5;;;6.9;;
28455;SDS011;15682;56.742;38.866;2022-12-18T00:33:04;10.2;;;6.4;;
28455;SDS011;15682;56.742;38.866;2022-12-18T00:35:05;14.1;;;7.1;;
28455;SDS011;15682;56.742;38.866;2022-12-18T00:37:04;11.0;;;6.1;;
28455;SDS011;15682;56.742;38.866;2022-12-18T00:39:04;13.3;;;5.8;;
28455;SDS011;15682;56.742;38.866;2022-12-18T00:41:04;10.3;;;6.2;;
28455;SDS011;15682;56.742;38.866;2022-12-18T00:43:03;9.9;;;6.4;;
28455;SDS011;15682;56.742;38.866;2022-12-18T00:45:04;13.3;;;7.3;;
28455;SDS011;15682;56.742;38.866;2022-12-18T00:47:03;10.5;;;6.5;;
28455;SDS011;15682;56.742;38.866;2022-12-18T00:49:03;9.7;;;6.4;;
28455;SDS011;15682;56.742;38.866;2022-12-18T00:51:03;10.0;;;6.4;;
28455;SDS011;15682;56.742;38.866;2022-12-18T00:53:02;10.0;;;6.5;;
28455;SDS011;15682;56.742;38.866;2022-12-18T00:55:02;14.5;;;6.8;;
28455;SDS011;15682;56.742;38.866;2022-12-18T00:57:02;13.0;;;7.0;;
28455;SDS011;15682;56.742;38.866;2022-12-18T00:59:02;11.4;;;6.4;;
28455;SDS011;15682;56.742;38.866;2022-12-18T01:01:03;11.4;;;6.8;;
28455;SDS011;15682;56.742;38.866;2022-12-18T01:03:01;11.9;;;6.9;;
28455;SDS011;15682;56.742;38.866;2022-12-18T01:05:01;11.1;;;6.7;;
28455;SDS011;15682;56.742;38.866;2022-12-18T01:07:01;13.5;;;6.9;;
28455;SDS011;15682;56.742;38.866;2022-12-18T01:09:01;11.6;;;7.2;;
28455;SDS011;15682;56.742;38.866;2022-12-18T01:11:01;12.5;;;6.9;;
28455;SDS011;15682;56.742;38.866;2022-12-18T01:13:00;12.7;;;7.0;;
28455;SDS011;15682;56.742;38.866;2022-12-18T01:15:00;12.2;;;7.3;;
28455;SDS011;15682;56.742;38.866;2022-12-18T01:17:00;12.1;;;6.7;;
28455;SDS011;15682;56.742;38.866;2022-12-18T01:19:00;10.5;;;6.5;;
28455;SDS011;15682;56.742;38.866;2022-12-18T01:21:00;11.9;;;6.7;;
28455;SDS011;15682;56.742;38.866;2022-12-18T01:23:00;11.0;;;6.6;;
28455;SDS011;15682;56.742;38.866;2022-12-18T01:24:59;11.8;;;6.6;;
28455;SDS011;15682;56.742;38.866;2022-12-18T01:26:59;10.6;;;6.3;;
28455;SDS011;15682;56.742;38.866;2022-12-18T01:28:59;10.1;;;6.3;;
28455;SDS011;15682;56.742;38.866;2022-12-18T01:31:08;11.9;;;6.4;;
28455;SDS011;15682;56.742;38.866;2022-12-18T01:32:58;11.1;;;6.9;;
28455;SDS011;15682;56.742;38.866;2022-12-18T01:34:58;11.3;;;6.8;;
28455;SDS011;15682;56.742;38.866;2022-12-18T01:36:58;11.2;;;6.7;;
28455;SDS011;15682;56.742;38.866;2022-12-18T01:38:58;10.7;;;5.9;;
28455;SDS011;15682;56.742;38.866;2022-12-18T01:40:58;11.5;;;6.4;;
28455;SDS011;15682;56.742;38.866;2022-12-18T01:42:57;13.9;;;7.0;;
28455;SDS011;15682;56.742;38.866;2022-12-18T01:44:59;11.2;;;6.7;;
28455;SDS011;15682;56.742;38.866;2022-12-18T01:46:57;12.1;;;6.9;;
28455;SDS011;15682;56.742;38.866;2022-12-18T01:48:57;10.5;;;6.9;;
28455;SDS011;15682;56.742;38.866;2022-12-18T01:50:56;11.5;;;7.2;;
28455;SDS011;15682;56.742;38.866;2022-12-18T01:52:58;10.8;;;6.4;;
28455;SDS011;15682;56.742;38.866;2022-12-18T01:54:56;12.2;;;7.1;;
28455;SDS011;15682;56.742;38.866;2022-12-18T01:56:56;11.9;;;7.1;;
28455;SDS011;15682;56.742;38.866;2022-12-18T01:58:57;11.3;;;6.7;;
28455;SDS011;15682;56.742;38.866;2022-12-18T02:00:56;10.0;;;6.4;;
28455;SDS011;15682;56.742;38.866;2022-12-18T02:02:55;9.9;;;6.5;;
28455;SDS011;15682;56.742;38.866;2022-12-18T02:04:55;12.7;;;7.4;;
28455;SDS011;15682;56.742;38.866;2022-12-18T02:06:55;13.0;;;7.3;;
28455;SDS011;15682;56.742;38.866;2022-12-18T02:08:58;11.0;;;6.6;;
28455;SDS011;15682;56.742;38.866;2022-12-18T02:10:57;9.8;;;5.9;;
28455;SDS011;15682;56.742;38.866;2022-12-18T02:12:56;11.3;;;6.3;;
28455;SDS011;15682;56.742;38.866;2022-12-18T02:14:55;12.4;;;6.8;;
28455;SDS011;15682;56.742;38.866;2022-12-18T02:16:56;11.2;;;6.6;;
28455;SDS011;15682;56.742;38.866;2022-12-18T02:18:55;14.5;;;7.1;;
28455;SDS011;15682;56.742;38.866;2022-12-18T02:20:54;10.3;;;6.3;;
28455;SDS011;15682;56.742;38.866;2022-12-18T02:23:00;12.0;;;6.4;;
28455;SDS011;15682;56.742;38.866;2022-12-18T02:24:56;10.2;;;6.3;;
28455;SDS011;15682;56.742;38.866;2022-12-18T02:26:53;10.6;;;6.5;;
28455;SDS011;15682;56.742;38.866;2022-12-18T02:28:53;10.8;;;6.1;;
28455;SDS011;15682;56.742;38.866;2022-12-18T02:30:52;11.0;;;6.2;;
28455;SDS011;15682;56.742;38.866;2022-12-18T02:32:52;11.4;;;6.8;;
28455;SDS011;15682;56.742;38.866;2022-12-18T02:34:52;12.2;;;6.8;;
28455;SDS011;15682;56.742;38.866;2022-12-18T02:36:51;10.8;;;6.3;;
28455;SDS011;15682;56.742;38.866;2022-12-18T02:38:51;11.8;;;6.8;;
28455;SDS011;15682;56.742;38.866;2022-12-18T02:40:51;10.0;;;6.1;;
28455;SDS011;15682;56.742;38.866;2022-12-18T02:42:51;10.9;;;6.3;;
28455;SDS011;15682;56.742;38.866;2022-12-18T02:44:51;11.2;;;6.5;;
28455;SDS011;15682;56.742;38.866;2022-12-18T02:46:51;11.1;;;6.2;;
28455;SDS011;15682;56.742;38.866;2022-12-18T02:48:50;10.0;;;6.3;;
28455;SDS011;15682;56.742;38.866;2022-12-18T02:50:51;10.8;;;6.4;;
28455;SDS011;15682;56.742;38.866;2022-12-18T02:52:54;12.3;;;6.3;;
28455;SDS011;15682;56.742;38.866;2022-12-18T02:54:53;10.5;;;6.5;;
28455;SDS011;15682;56.742;38.866;2022-12-18T02:56:50;10.5;;;5.7;;
28455;SDS011;15682;56.742;38.866;2022-12-18T02:58:51;10.4;;;5.8;;
28455;SDS011;15682;56.742;38.866;2022-12-18T03:00:51;12.0;;;6.3;;
28455;SDS011;15682;56.742;38.866;2022-12-18T03:02:51;9.6;;;5.9;;
28455;SDS011;15682;56.742;38.866;2022-12-18T03:04:49;11.5;;;6.4;;
28455;SDS011;15682;56.742;38.866;2022-12-18T03:06:49;11.0;;;6.2;;
28455;SDS011;15682;56.742;38.866;2022-12-18T03:08:49;11.0;;;6.1;;
28455;SDS011;15682;56.742;38.866;2022-12-18T03:10:49;10.5;;;6.4;;
28455;SDS011;15682;56.742;38.866;2022-12-18T03:12:50;10.9;;;6.1;;
28455;SDS011;15682;56.742;38.866;2022-12-18T03:14:48;9.6;;;5.8;;
28455;SDS011;15682;56.742;38.866;2022-12-18T03:16:47;9.9;;;5.8;;
28455;SDS011;15682;56.742;38.866;2022-12-18T03:18:48;10.6;;;6.3;;
28455;SDS011;15682;56.742;38.866;2022-12-18T03:20:47;10.9;;;5.9;;
28455;SDS011;15682;56.742;38.866;2022-12-18T03:22:48;11.6;;;6.2;;
28455;SDS011;15682;56.742;38.866;2022-12-18T03:24:46;10.3;;;6.1;;
28455;SDS011;15682;56.742;38.866;2022-12-18T03:26:47;9.5;;;5.9;;
28455;SDS011;15682;56.742;38.866;2022-12-18T03:28:47;9.0;;;5.8;;
28455;SDS011;15682;56.742;38.866;2022-12-18T03:30:46;9.0;;;5.9;;
28455;SDS011;15682;56.742;38.866;2022-12-18T03:32:47;9.9;;;5.8;;
28455;SDS011;15682;56.742;38.866;2022-12-18T03:34:46;9.0;;;5.4;;
28455;SDS011;15682;56.742;38.866;2022-12-18T03:36:45;9.2;;;5.6;;
28455;SDS011;15682;56.742;38.866;2022-12-18T03:38:45;13.0;;;6.5;;
28455;SDS011;15682;56.742;38.866;2022-12-18T03:40:50;11.5;;;5.7;;
28455;SDS011;15682;56.742;38.866;2022-12-18T03:42:46;11.5;;;6.3;;
28455;SDS011;15682;56.742;38.866;2022-12-18T03:44:45;9.7;;;5.5;;
28455;SDS011;15682;56.742;38.866;2022-12-18T03:46:46;9.9;;;5.8;;
28455;SDS011;15682;56.742;38.866;2022-12-18T03:48:45;10.6;;;5.7;;
28455;SDS011;15682;56.742;38.866;2022-12-18T03:50:45;10.9;;;6.0;;
28455;SDS011;15682;56.742;38.866;2022-12-18T03:52:45;11.2;;;6.0;;
28455;SDS011;15682;56.742;38.866;2022-12-18T03:54:43;11.2;;;5.8;;
28455;SDS011;15682;56.742;38.866;2022-12-18T03:56:44;10.0;;;5.7;;
28455;SDS011;15682;56.742;38.866;2022-12-18T03:58:43;8.7;;;5.3;;
28455;SDS011;15682;56.742;38.866;2022-12-18T04:00:43;9.0;;;5.3;;
28455;SDS011;15682;56.742;38.866;2022-12-18T04:02:43;9.2;;;5.5;;
28455;SDS011;15682;56.742;38.866;2022-12-18T04:04:43;8.3;;;5.0;;
28455;SDS011;15682;56.742;38.866;2022-12-18T04:06:42;10.0;;;5.9;;
28455;SDS011;15682;56.742;38.866;2022-12-18T04:08:42;9.9;;;6.0;;
28455;SDS011;15682;56.742;38.866;2022-12-18T04:10:42;9.4;;;5.7;;
28455;SDS011;15682;56.742;38.866;2022-12-18T04:12:41;10.6;;;6.0;;
28455;SDS011;15682;56.742;38.866;2022-12-18T04:14:41;9.6;;;5.8;;
28455;SDS011;15682;56.742;38.866;2022-12-18T04:16:41;10.4;;;5.9;;
28455;SDS011;15682;56.742;38.866;2022-12-18T04:18:41;11.0;;;5.6;;
28455;SDS011;15682;56.742;38.866;2022-12-18T04:20:41;10.1;;;5.8;;
28455;SDS011;15682;56.742;38.866;2022-12-18T04:22:41;10.8;;;5.8;;
28455;SDS011;15682;56.742;38.866;2022-12-18T04:24:40;10.8;;;6.1;;
28455;SDS011;15682;56.742;38.866;2022-12-18T04:26:40;11.2;;;6.2;;
28455;SDS011;15682;56.742;38.866;2022-12-18T04:28:40;9.9;;;6.1;;
28455;SDS011;15682;56.742;38.866;2022-12-18T04:30:39;9.2;;;5.6;;
28455;SDS011;15682;56.742;38.866;2022-12-18T04:32:39;11.7;;;6.0;;
28455;SDS011;15682;56.742;38.866;2022-12-18T04:34:39;11.1;;;6.2;;
28455;SDS011;15682;56.742;38.866;2022-12-18T04:36:39;9.0;;;5.6;;
28455;SDS011;15682;56.742;38.866;2022-12-18T04:38:39;9.3;;;5.8;;
28455;SDS011;15682;56.742;38.866;2022-12-18T04:40:39;12.2;;;5.9;;
28455;SDS011;15682;56.742;38.866;2022-12-18T04:42:38;11.0;;;5.8;;
28455;SDS011;15682;56.742;38.866;2022-12-18T04:44:38;9.6;;;6.0;;
28455;SDS011;15682;56.742;38.866;2022-12-18T04:46:38;10.0;;;5.9;;
28455;SDS011;15682;56.742;38.866;2022-12-18T04:48:38;11.3;;;6.0;;
28455;SDS011;15682;56.742;38.866;2022-12-18T04:50:37;9.4;;;5.9;;
28455;SDS011;15682;56.742;38.866;2022-12-18T04:52:37;9.7;;;6.2;;
28455;SDS011;15682;56.742;38.866;2022-12-18T04:54:37;14.0;;;6.4;;
28455;SDS011;15682;56.742;38.866;2022-12-18T04:56:37;11.4;;;6.0;;
28455;SDS011;15682;56.742;38.866;2022-12-18T04:58:37;10.5;;;6.0;;
28455;SDS011;15682;56.742;38.866;2022-12-18T05:00:36;10.1;;;6.2;;
28455;SDS011;15682;56.742;38.866;2022-12-18T05:02:36;10.4;;;5.9;;
28455;SDS011;15682;56.742;38.866;2022-12-18T05:04:36;10.4;;;6.0;;
28455;SDS011;15682;56.742;38.866;2022-12-18T05:06:36;14.2;;;6.1;;
28455;SDS011;15682;56.742;38.866;2022-12-18T05:08:36;11.5;;;6.4;;
28455;SDS011;15682;56.742;38.866;2022-12-18T05:10:35;11.3;;;5.9;;
28455;SDS011;15682;56.742;38.866;2022-12-18T05:12:35;12.1;;;6.0;;
28455;SDS011;15682;56.742;38.866;2022-12-18T05:14:35;10.5;;;6.5;;
28455;SDS011;15682;56.742;38.866;2022-12-18T05:16:34;11.6;;;6.3;;
28455;SDS011;15682;56.742;38.866;2022-12-18T05:18:34;11.6;;;6.3;;
28455;SDS011;15682;56.742;38.866;2022-12-18T05:20:34;10.3;;;6.5;;
28455;SDS011;15682;56.742;38.866;2022-12-18T05:22:34;11.7;;;6.2;;
28455;SDS011;15682;56.742;38.866;2022-12-18T05:24:34;10.9;;;6.0;;
28455;SDS011;15682;56.742;38.866;2022-12-18T05:26:34;10.9;;;6.4;;
28455;SDS011;15682;56.742;38.866;2022-12-18T05:28:34;12.0;;;5.8;;
28455;SDS011;15682;56.742;38.866;2022-12-18T05:30:33;10.9;;;6.3;;
28455;SDS011;15682;56.742;38.866;2022-12-18T05:32:33;12.4;;;6.7;;
28455;SDS011;15682;56.742;38.866;2022-12-18T05:34:32;10.1;;;5.9;;
28455;SDS011;15682;56.742;38.866;2022-12-18T05:36:32;12.5;;;6.2;;
28455;SDS011;15682;56.742;38.866;2022-12-18T05:38:33;10.5;;;6.0;;
28455;SDS011;15682;56.742;38.866;2022-12-18T05:40:32;11.3;;;6.4;;
28455;SDS011;15682;56.742;38.866;2022-12-18T05:42:32;10.1;;;6.3;;
28455;SDS011;15682;56.742;38.866;2022-12-18T05:44:31;11.1;;;6.0;;
28455;SDS011;15682;56.742;38.866;2022-12-18T05:46:31;11.2;;;6.3;;
28455;SDS011;15682;56.742;38.866;2022-12-18T05:48:31;11.0;;;6.1;;
28455;SDS011;15682;56.742;38.866;2022-12-18T05:50:33;10.4;;;5.8;;
28455;SDS011;15682;56.742;38.866;2022-12-18T05:52:31;10.6;;;6.0;;
28455;SDS011;15682;56.742;38.866;2022-12-18T05:54:30;14.2;;;6.1;;
28455;SDS011;15682;56.742;38.866;2022-12-18T05:56:30;11.1;;;6.0;;
28455;SDS011;15682;56.742;38.866;2022-12-18T05:58:30;10.9;;;6.3;;
28455;SDS011;15682;56.742;38.866;2022-12-18T06:00:30;13.5;;;6.4;;
28455;SDS011;15682;56.742;38.866;2022-12-18T06:02:30;16.2;;;6.6;;
28455;SDS011;15682;56.742;38.866;2022-12-18T06:04:29;10.0;;;6.0;;
28455;SDS011;15682;56.742;38.866;2022-12-18T06:06:29;14.0;;;6.8;;
28455;SDS011;15682;56.742;38.866;2022-12-18T06:08:29;9.5;;;5.7;;
28455;SDS011;15682;56.742;38.866;2022-12-18T06:10:29;11.6;;;6.4;;
28455;SDS011;15682;56.742;38.866;2022-12-18T06:12:28;12.4;;;6.6;;
28455;SDS011;15682;56.742;38.866;2022-12-18T06:14:28;11.1;;;6.3;;
28455;SDS011;15682;56.742;38.866;2022-12-18T06:16:28;11.8;;;6.6;;
28455;SDS011;15682;56.742;38.866;2022-12-18T06:18:28;12.5;;;6.3;;
28455;SDS011;15682;56.742;38.866;2022-12-18T06:20:28;11.3;;;6.3;;
28455;SDS011;15682;56.742;38.866;2022-12-18T06:22:27;12.4;;;6.6;;
28455;SDS011;15682;56.742;38.866;2022-12-18T06:24:27;13.6;;;6.1;;
28455;SDS011;15682;56.742;38.866;2022-12-18T06:26:27;12.2;;;6.8;;
28455;SDS011;15682;56.742;38.866;2022-12-18T06:28:27;17.0;;;7.1;;
28455;SDS011;15682;56.742;38.866;2022-12-18T06:30:27;13.1;;;6.4;;
28455;SDS011;15682;56.742;38.866;2022-12-18T06:32:26;12.2;;;6.4;;
28455;SDS011;15682;56.742;38.866;2022-12-18T06:34:26;13.5;;;6.6;;
28455;SDS011;15682;56.742;38.866;2022-12-18T06:36:29;10.4;;;5.8;;
28455;SDS011;15682;56.742;38.866;2022-12-18T06:38:26;10.2;;;6.0;;
28455;SDS011;15682;56.742;38.866;2022-12-18T06:40:26;10.7;;;6.0;;
28455;SDS011;15682;56.742;38.866;2022-12-18T06:42:25;9.4;;;5.8;;
28455;SDS011;15682;56.742;38.866;2022-12-18T06:44:25;10.3;;;6.0;;
28455;SDS011;15682;56.742;38.866;2022-12-18T06:46:25;11.8;;;6.2;;
28455;SDS011;15682;56.742;38.866;2022-12-18T06:48:25;9.5;;;5.7;;
28455;SDS011;15682;56.742;38.866;2022-12-18T06:50:25;11.9;;;5.9;;
28455;SDS011;15682;56.742;38.866;2022-12-18T06:52:24;12.4;;;6.3;;
28455;SDS011;15682;56.742;38.866;2022-12-18T06:54:24;10.1;;;5.4;;
28455;SDS011;15682;56.742;38.866;2022-12-18T06:56:24;10.7;;;6.2;;
28455;SDS011;15682;56.742;38.866;2022-12-18T06:58:24;9.6;;;5.8;;
28455;SDS011;15682;56.742;38.866;2022-12-18T07:00:24;10.1;;;5.9;;
28455;SDS011;15682;56.742;38.866;2022-12-18T07:02:23;11.2;;;6.5;;
28455;SDS011;15682;56.742;38.866;2022-12-18T07:04:27;11.2;;;6.2;;
28455;SDS011;15682;56.742;38.866;2022-12-18T07:06:24;10.9;;;6.0;;
28455;SDS011;15682;56.742;38.866;2022-12-18T07:08:23;11.3;;;6.0;;
28455;SDS011;15682;56.742;38.866;2022-12-18T07:10:23;10.3;;;5.6;;
28455;SDS011;15682;56.742;38.866;2022-12-18T07:12:23;10.1;;;6.1;;
28455;SDS011;15682;56.742;38.866;2022-12-18T07:14:22;13.9;;;6.5;;
28455;SDS011;15682;56.742;38.866;2022-12-18T07:16:22;12.5;;;5.9;;
28455;SDS011;15682;56.742;38.866;2022-12-18T07:18:22;9.6;;;5.5;;
28455;SDS011;15682;56.742;38.866;2022-12-18T07:20:22;12.3;;;6.1;;
28455;SDS011;15682;56.742;38.866;2022-12-18T07:22:22;9.1;;;5.6;;
28455;SDS011;15682;56.742;38.866;2022-12-18T07:24:21;11.4;;;5.9;;
28455;SDS011;15682;56.742;38.866;2022-12-18T07:26:21;8.8;;;5.3;;
28455;SDS011;15682;56.742;38.866;2022-12-18T07:28:21;11.5;;;5.5;;
28455;SDS011;15682;56.742;38.866;2022-12-18T07:30:21;8.6;;;5.4;;
28455;SDS011;15682;56.742;38.866;2022-12-18T07:32:21;9.8;;;5.5;;
28455;SDS011;15682;56.742;38.866;2022-12-18T07:34:20;8.4;;;4.7;;
28455;SDS011;15682;56.742;38.866;2022-12-18T07:36:20;8.8;;;5.1;;
28455;SDS011;15682;56.742;38.866;2022-12-18T07:38:20;9.9;;;5.0;;
28455;SDS011;15682;56.742;38.866;2022-12-18T07:40:20;11.1;;;5.1;;
28455;SDS011;15682;56.742;38.866;2022-12-18T07:42:20;10.2;;;5.0;;
28455;SDS011;15682;56.742;38.866;2022-12-18T07:44:20;8.7;;;4.7;;
28455;SDS011;15682;56.742;38.866;2022-12-18T07:46:19;13.8;;;5.3;;
28455;SDS011;15682;56.742;38.866;2022-12-18T07:48:19;13.2;;;5.2;;
28455;SDS011;15682;56.742;38.866;2022-12-18T07:50:19;7.7;;;4.7;;
28455;SDS011;15682;56.742;38.866;2022-12-18T07:52:19;10.0;;;5.2;;
28455;SDS011;15682;56.742;38.866;2022-12-18T07:54:19;10.8;;;5.3;;
28455;SDS011;15682;56.742;38.866;2022-12-18T07:56:19;10.0;;;4.8;;
28455;SDS011;15682;56.742;38.866;2022-12-18T07:58:18;8.8;;;5.1;;
28455;SDS011;15682;56.742;38.866;2022-12-18T08:00:18;8.4;;;4.5;;
28455;SDS011;15682;56.742;38.866;2022-12-18T08:02:18;7.6;;;4.6;;
28455;SDS011;15682;56.742;38.866;2022-12-18T08:04:18;19.2;;;6.0;;
28455;SDS011;15682;56.742;38.866;2022-12-18T08:06:18;7.9;;;4.6;;
28455;SDS011;15682;56.742;38.866;2022-12-18T08:08:18;8.1;;;4.6;;
28455;SDS011;15682;56.742;38.866;2022-12-18T08:10:17;10.3;;;4.8;;
28455;SDS011;15682;56.742;38.866;2022-12-18T08:12:17;8.4;;;4.6;;
28455;SDS011;15682;56.742;38.866;2022-12-18T08:14:17;12.4;;;5.4;;
28455;SDS011;15682;56.742;38.866;2022-12-18T08:16:17;16.6;;;5.7;;
28455;SDS011;15682;56.742;38.866;2022-12-18T08:18:17;10.1;;;5.1;;
28455;SDS011;15682;56.742;38.866;2022-12-18T08:20:17;6.6;;;4.3;;
28455;SDS011;15682;56.742;38.866;2022-12-18T08:22:16;6.5;;;4.2;;
28455;SDS011;15682;56.742;38.866;2022-12-18T08:24:16;6.9;;;4.1;;
28455;SDS011;15682;56.742;38.866;2022-12-18T08:26:16;12.8;;;5.3;;
28455;SDS011;15682;56.742;38.866;2022-12-18T08:28:16;9.4;;;4.6;;
28455;SDS011;15682;56.742;38.866;2022-12-18T08:30:16;8.4;;;4.4;;
28455;SDS011;15682;56.742;38.866;2022-12-18T08:32:15;12.4;;;5.0;;
28455;SDS011;15682;56.742;38.866;2022-12-18T08:34:15;7.9;;;4.4;;
28455;SDS011;15682;56.742;38.866;2022-12-18T08:36:16;7.0;;;4.0;;
28455;SDS011;15682;56.742;38.866;2022-12-18T08:38:15;9.5;;;4.1;;
28455;SDS011;15682;56.742;38.866;2022-12-18T08:40:15;8.5;;;4.6;;
28455;SDS011;15682;56.742;38.866;2022-12-18T08:42:15;8.2;;;4.5;;
28455;SDS011;15682;56.742;38.866;2022-12-18T08:44:14;8.3;;;4.4;;
28455;SDS011;15682;56.742;38.866;2022-12-18T08:46:14;13.2;;;5.0;;
28455;SDS011;15682;56.742;38.866;2022-12-18T08:48:14;8.2;;;3.9;;
28455;SDS011;15682;56.742;38.866;2022-12-18T08:50:14;8.1;;;4.5;;
28455;SDS011;15682;56.742;38.866;2022-12-18T08:52:14;7.7;;;4.5;;
28455;SDS011;15682;56.742;38.866;2022-12-18T08:54:14;6.1;;;4.1;;
28455;SDS011;15682;56.742;38.866;2022-12-18T08:56:14;7.4;;;3.9;;
28455;SDS011;15682;56.742;38.866;2022-12-18T08:58:13;11.7;;;4.8;;
28455;SDS011;15682;56.742;38.866;2022-12-18T09:00:14;7.8;;;4.6;;
28455;SDS011;15682;56.742;38.866;2022-12-18T09:02:13;10.4;;;4.3;;
28455;SDS011;15682;56.742;38.866;2022-12-18T09:04:13;7.9;;;4.1;;
28455;SDS011;15682;56.742;38.866;2022-12-18T09:06:13;5.9;;;3.9;;
28455;SDS011;15682;56.742;38.866;2022-12-18T09:08:13;8.4;;;4.4;;
28455;SDS011;15682;56.742;38.866;2022-12-18T09:10:12;7.4;;;4.3;;
28455;SDS011;15682;56.742;38.866;2022-12-18T09:12:12;5.7;;;3.5;;
28455;SDS011;15682;56.742;38.866;2022-12-18T09:14:12;8.3;;;3.7;;
28455;SDS011;15682;56.742;38.866;2022-12-18T09:16:13;6.2;;;3.8;;
28455;SDS011;15682;56.742;38.866;2022-12-18T09:18:12;9.5;;;4.5;;
28455;SDS011;15682;56.742;38.866;2022-12-18T09:20:12;6.9;;;4.2;;
28455;SDS011;15682;56.742;38.866;2022-12-18T09:22:11;6.2;;;3.9;;
28455;SDS011;15682;56.742;38.866;2022-12-18T09:24:12;6.9;;;4.2;;
28455;SDS011;15682;56.742;38.866;2022-12-18T09:26:11;8.5;;;4.3;;
28455;SDS011;15682;56.742;38.866;2022-12-18T09:28:15;8.0;;;4.1;;
28455;SDS011;15682;56.742;38.866;2022-12-18T09:30:11;6.6;;;4.0;;
28455;SDS011;15682;56.742;38.866;2022-12-18T09:32:11;6.4;;;3.8;;
28455;SDS011;15682;56.742;38.866;2022-12-18T09:34:10;5.7;;;3.7;;
28455;SDS011;15682;56.742;38.866;2022-12-18T09:36:11;7.1;;;4.1;;
28455;SDS011;15682;56.742;38.866;2022-12-18T09:38:11;8.0;;;4.5;;
28455;SDS011;15682;56.742;38.866;2022-12-18T09:40:13;6.2;;;4.0;;
28455;SDS011;15682;56.742;38.866;2022-12-18T09:42:10;7.9;;;4.2;;
28455;SDS011;15682;56.742;38.866;2022-12-18T09:44:18;5.6;;;3.6;;
28455;SDS011;15682;56.742;38.866;2022-12-18T09:46:10;6.6;;;4.1;;
28455;SDS011;15682;56.742;38.866;2022-12-18T09:48:10;8.2;;;4.2;;
28455;SDS011;15682;56.742;38.866;2022-12-18T09:50:15;7.8;;;4.2;;
28455;SDS011;15682;56.742;38.866;2022-12-18T09:52:10;6.4;;;3.6;;
28455;SDS011;15682;56.742;38.866;2022-12-18T09:54:11;6.8;;;4.2;;
28455;SDS011;15682;56.742;38.866;2022-12-18T09:56:10;7.0;;;3.7;;
28455;SDS011;15682;56.742;38.866;2022-12-18T09:58:12;6.2;;;3.8;;
28455;SDS011;15682;56.742;38.866;2022-12-18T10:00:11;6.8;;;3.8;;
28455;SDS011;15682;56.742;38.866;2022-12-18T10:02:12;8.8;;;3.8;;
28455;SDS011;15682;56.742;38.866;2022-12-18T10:04:08;7.1;;;4.0;;
28455;SDS011;15682;56.742;38.866;2022-12-18T10:06:09;6.4;;;3.7;;
28455;SDS011;15682;56.742;38.866;2022-12-18T10:08:08;8.2;;;4.1;;
28455;SDS011;15682;56.742;38.866;2022-12-18T10:10:10;8.8;;;4.4;;
28455;SDS011;15682;56.742;38.866;2022-12-18T10:12:08;6.3;;;3.7;;
28455;SDS011;15682;56.742;38.866;2022-12-18T10:14:09;6.6;;;4.1;;
28455;SDS011;15682;56.742;38.866;2022-12-18T10:16:09;7.1;;;4.2;;
28455;SDS011;15682;56.742;38.866;2022-12-18T10:18:13;8.4;;;4.2;;
28455;SDS011;15682;56.742;38.866;2022-12-18T10:20:09;7.4;;;4.1;;
28455;SDS011;15682;56.742;38.866;2022-12-18T10:22:11;7.3;;;3.9;;
28455;SDS011;15682;56.742;38.866;2022-12-18T10:24:09;6.8;;;3.9;;
28455;SDS011;15682;56.742;38.866;2022-12-18T10:26:06;6.6;;;4.2;;
28455;SDS011;15682;56.742;38.866;2022-12-18T10:28:08;6.4;;;4.0;;
28455;SDS011;15682;56.742;38.866;2022-12-18T10:30:08;6.8;;;3.6;;
28455;SDS011;15682;56.742;38.866;2022-12-18T10:32:06;5.8;;;3.6;;
28455;SDS011;15682;56.742;38.866;2022-12-18T10:34:08;6.4;;;3.7;;
28455;SDS011;15682;56.742;38.866;2022-12-18T10:36:05;5.6;;;3.6;;
28455;SDS011;15682;56.742;38.866;2022-12-18T10:38:06;6.4;;;3.8;;
28455;SDS011;15682;56.742;38.866;2022-12-18T10:40:07;5.7;;;3.5;;
28455;SDS011;15682;56.742;38.866;2022-12-18T10:42:09;7.4;;;3.5;;
28455;SDS011;15682;56.742;38.866;2022-12-18T10:44:11;8.0;;;3.2;;
28455;SDS011;15682;56.742;38.866;2022-12-18T10:46:11;6.4;;;3.6;;
28455;SDS011;15682;56.742;38.866;2022-12-18T10:48:04;6.3;;;3.3;;
28455;SDS011;15682;56.742;38.866;2022-12-18T10:50:04;6.9;;;3.9;;
28455;SDS011;15682;56.742;38.866;2022-12-18T10:52:07;7.5;;;3.7;;
28455;SDS011;15682;56.742;38.866;2022-12-18T10:54:04;5.8;;;3.3;;
28455;SDS011;15682;56.742;38.866;2022-12-18T10:56:04;6.5;;;3.7;;
28455;SDS011;15682;56.742;38.866;2022-12-18T11:02:07;4.9;;;3.3;;
28455;SDS011;15682;56.742;38.866;2022-12-18T11:04:07;5.4;;;3.0;;
28455;SDS011;15682;56.742;38.866;2022-12-18T11:06:04;6.4;;;3.1;;
28455;SDS011;15682;56.742;38.866;2022-12-18T11:08:03;5.3;;;2.9;;
28455;SDS011;15682;56.742;38.866;2022-12-18T11:10:03;4.7;;;2.7;;
28455;SDS011;15682;56.742;38.866;2022-12-18T11:12:03;6.5;;;3.1;;
28455;SDS011;15682;56.742;38.866;2022-12-18T11:14:03;4.7;;;3.0;;
28455;SDS011;15682;56.742;38.866;2022-12-18T11:16:02;5.5;;;2.8;;
28455;SDS011;15682;56.742;38.866;2022-12-18T11:18:02;5.3;;;3.2;;
28455;SDS011;15682;56.742;38.866;2022-12-18T11:20:03;5.1;;;3.0;;
28455;SDS011;15682;56.742;38.866;2022-12-18T11:22:03;5.9;;;3.5;;
28455;SDS011;15682;56.742;38.866;2022-12-18T11:24:02;4.8;;;3.0;;
28455;SDS011;15682;56.742;38.866;2022-12-18T11:26:02;5.3;;;3.1;;
28455;SDS011;15682;56.742;38.866;2022-12-18T11:28:02;5.6;;;3.3;;
28455;SDS011;15682;56.742;38.866;2022-12-18T11:30:09;6.4;;;3.0;;
28455;SDS011;15682;56.742;38.866;2022-12-18T11:34:02;5.9;;;3.2;;
28455;SDS011;15682;56.742;38.866;2022-12-18T11:36:01;7.7;;;3.4;;
28455;SDS011;15682;56.742;38.866;2022-12-18T11:38:02;4.7;;;2.5;;
28455;SDS011;15682;56.742;38.866;2022-12-18T11:40:02;7.9;;;3.2;;
28455;SDS011;15682;56.742;38.866;2022-12-18T11:42:02;4.8;;;2.7;;
28455;SDS011;15682;56.742;38.866;2022-12-18T11:44:00;8.3;;;3.1;;
28455;SDS011;15682;56.742;38.866;2022-12-18T11:46:01;6.8;;;3.6;;
28455;SDS011;15682;56.742;38.866;2022-12-18T11:48:02;5.4;;;3.4;;
28455;SDS011;15682;56.742;38.866;2022-12-18T11:50:00;6.6;;;3.5;;
28455;SDS011;15682;56.742;38.866;2022-12-18T11:52:01;4.7;;;3.0;;
28455;SDS011;15682;56.742;38.866;2022-12-18T11:54:00;5.1;;;3.1;;
28455;SDS011;15682;56.742;38.866;2022-12-18T11:56:02;6.4;;;3.3;;
28455;SDS011;15682;56.742;38.866;2022-12-18T11:58:00;6.4;;;3.4;;
28455;SDS011;15682;56.742;38.866;2022-12-18T12:00:00;6.5;;;3.2;;
28455;SDS011;15682;56.742;38.866;2022-12-18T12:01:59;5.0;;;3.1;;
28455;SDS011;15682;56.742;38.866;2022-12-18T12:06:01;4.7;;;3.1;;
28455;SDS011;15682;56.742;38.866;2022-12-18T12:07:59;6.3;;;3.0;;
28455;SDS011;15682;56.742;38.866;2022-12-18T12:10:00;6.0;;;3.2;;
28455;SDS011;15682;56.742;38.866;2022-12-18T12:12:01;4.7;;;2.9;;
28455;SDS011;15682;56.742;38.866;2022-12-18T12:14:02;9.0;;;3.3;;